Saint Augustine, Illinois
Current Conditions -  °F | °C
As of 3:15 AM on Monday 24 Nov 2014 (Local Time) from KGBG Reporting Station
Haze Haze  
Wind Chill: 27°   Ceiling: 600
Heat Index: 37°   Visibility: 4mi
Dew Point: 37°   Wind: 17mph
Humidity: 98%   Direction: 280°W
Pressure: 29.2"   Gusts: 25mph
Location:  40.72°N, 90.41°W
Report Text: KGBG 240915Z AUTO 28015G22KT 4SM BR OVC006 03/03 A2920 RMK AO2 T00280025
Loading
Personal Weather Stations






























Interactive Weather Map New forecast layout! Learn more

10-Day Weather Forecast

Advertisements
Track Severe Weather on mobile